sensor_id;sensor_type;location;lat;lon;timestamp;temperature;humidity
60309;DHT22;50313;52.894;6.492;2023-02-12T00:01:39;5.50;99.90
60309;DHT22;50313;52.894;6.492;2023-02-12T00:04:04;5.50;99.90
60309;DHT22;50313;52.894;6.492;2023-02-12T00:06:30;5.50;99.90
60309;DHT22;50313;52.894;6.492;2023-02-12T00:08:57;5.40;99.90
60309;DHT22;50313;52.894;6.492;2023-02-12T00:11:27;5.40;99.90
60309;DHT22;50313;52.894;6.492;2023-02-12T00:13:54;5.40;99.90
60309;DHT22;50313;52.894;6.492;2023-02-12T00:16:26;5.50;99.90
60309;DHT22;50313;52.894;6.492;2023-02-12T00:18:54;5.50;99.90
60309;DHT22;50313;52.894;6.492;2023-02-12T00:21:21;5.60;99.90
60309;DHT22;50313;52.894;6.492;2023-02-12T00:23:47;5.50;99.90
60309;DHT22;50313;52.894;6.492;2023-02-12T00:26:16;5.60;99.90
60309;DHT22;50313;52.894;6.492;2023-02-12T00:28:42;5.50;99.90
60309;DHT22;50313;52.894;6.492;2023-02-12T00:31:15;5.50;99.90
60309;DHT22;50313;52.894;6.492;2023-02-12T00:33:41;5.50;99.90
60309;DHT22;50313;52.894;6.492;2023-02-12T00:36:08;5.50;99.90
60309;DHT22;50313;52.894;6.492;2023-02-12T00:38:34;5.50;99.90
60309;DHT22;50313;52.894;6.492;2023-02-12T00:41:00;5.50;99.90
60309;DHT22;50313;52.894;6.492;2023-02-12T00:43:26;5.50;99.90
60309;DHT22;50313;52.894;6.492;2023-02-12T00:45:51;5.50;99.90
60309;DHT22;50313;52.894;6.492;2023-02-12T00:48:17;5.50;99.90
60309;DHT22;50313;52.894;6.492;2023-02-12T00:50:44;5.50;99.90
60309;DHT22;50313;52.894;6.492;2023-02-12T00:53:11;5.50;99.90
60309;DHT22;50313;52.894;6.492;2023-02-12T00:55:36;5.50;99.90
60309;DHT22;50313;52.894;6.492;2023-02-12T00:58:02;5.50;99.90
60309;DHT22;50313;52.894;6.492;2023-02-12T01:00:28;5.50;99.90
60309;DHT22;50313;52.894;6.492;2023-02-12T01:02:54;5.50;99.90
60309;DHT22;50313;52.894;6.492;2023-02-12T01:05:20;5.40;99.90
60309;DHT22;50313;52.894;6.492;2023-02-12T01:07:50;5.50;99.90
60309;DHT22;50313;52.894;6.492;2023-02-12T01:10:16;5.50;99.90
60309;DHT22;50313;52.894;6.492;2023-02-12T01:12:42;5.50;99.90
60309;DHT22;50313;52.894;6.492;2023-02-12T01:15:09;5.50;99.90
60309;DHT22;50313;52.894;6.492;2023-02-12T01:17:35;5.40;99.90
60309;DHT22;50313;52.894;6.492;2023-02-12T01:20:01;5.50;99.90
60309;DHT22;50313;52.894;6.492;2023-02-12T01:22:30;5.50;99.90
60309;DHT22;50313;52.894;6.492;2023-02-12T01:24:56;5.40;99.90
60309;DHT22;50313;52.894;6.492;2023-02-12T01:27:21;5.40;99.90
60309;DHT22;50313;52.894;6.492;2023-02-12T01:29:47;5.40;99.90
60309;DHT22;50313;52.894;6.492;2023-02-12T01:32:13;5.40;99.90
60309;DHT22;50313;52.894;6.492;2023-02-12T01:34:38;5.30;99.90
60309;DHT22;50313;52.894;6.492;2023-02-12T01:37:04;5.30;99.90
60309;DHT22;50313;52.894;6.492;2023-02-12T01:39:30;5.40;99.90
60309;DHT22;50313;52.894;6.492;2023-02-12T01:41:55;5.30;99.90
60309;DHT22;50313;52.894;6.492;2023-02-12T01:44:24;5.30;99.90
60309;DHT22;50313;52.894;6.492;2023-02-12T01:47:01;5.30;99.90
60309;DHT22;50313;52.894;6.492;2023-02-12T01:49:31;5.30;99.90
60309;DHT22;50313;52.894;6.492;2023-02-12T01:54:34;5.20;99.90
60309;DHT22;50313;52.894;6.492;2023-02-12T01:57:02;5.20;99.90
60309;DHT22;50313;52.894;6.492;2023-02-12T01:59:29;5.10;99.90
60309;DHT22;50313;52.894;6.492;2023-02-12T02:01:55;5.20;99.90
60309;DHT22;50313;52.894;6.492;2023-02-12T02:04:25;5.20;99.90
60309;DHT22;50313;52.894;6.492;2023-02-12T02:06:54;5.20;99.90
60309;DHT22;50313;52.894;6.492;2023-02-12T02:09:20;5.10;99.90
60309;DHT22;50313;52.894;6.492;2023-02-12T02:11:46;5.10;99.90
60309;DHT22;50313;52.894;6.492;2023-02-12T02:14:30;5.10;99.90
60309;DHT22;50313;52.894;6.492;2023-02-12T02:25:56;5.10;99.90
60309;DHT22;50313;52.894;6.492;2023-02-12T02:31:48;5.10;99.90
60309;DHT22;50313;52.894;6.492;2023-02-12T02:34:27;5.10;99.90
60309;DHT22;50313;52.894;6.492;2023-02-12T02:37:25;5.10;99.90
60309;DHT22;50313;52.894;6.492;2023-02-12T02:40:17;5.20;99.90
60309;DHT22;50313;52.894;6.492;2023-02-12T02:43:15;5.20;99.90
60309;DHT22;50313;52.894;6.492;2023-02-12T02:45:48;5.20;99.90
60309;DHT22;50313;52.894;6.492;2023-02-12T02:48:44;5.20;99.90
60309;DHT22;50313;52.894;6.492;2023-02-12T02:51:15;5.20;99.90
60309;DHT22;50313;52.894;6.492;2023-02-12T02:53:46;5.20;99.90
60309;DHT22;50313;52.894;6.492;2023-02-12T02:56:17;5.20;99.90
60309;DHT22;50313;52.894;6.492;2023-02-12T02:58:52;5.30;99.90
60309;DHT22;50313;52.894;6.492;2023-02-12T03:01:30;5.20;99.90
60309;DHT22;50313;52.894;6.492;2023-02-12T03:09:01;5.20;99.90
60309;DHT22;50313;52.894;6.492;2023-02-12T03:11:32;5.20;99.90
60309;DHT22;50313;52.894;6.492;2023-02-12T03:14:21;5.20;99.90
60309;DHT22;50313;52.894;6.492;2023-02-12T03:16:58;5.20;99.90
60309;DHT22;50313;52.894;6.492;2023-02-12T03:19:29;5.20;99.90
60309;DHT22;50313;52.894;6.492;2023-02-12T03:22:01;5.20;99.90
60309;DHT22;50313;52.894;6.492;2023-02-12T03:24:44;5.20;99.90
60309;DHT22;50313;52.894;6.492;2023-02-12T03:29:43;5.30;99.90
60309;DHT22;50313;52.894;6.492;2023-02-12T03:32:19;5.30;99.90
60309;DHT22;50313;52.894;6.492;2023-02-12T03:35:05;5.30;99.90
60309;DHT22;50313;52.894;6.492;2023-02-12T03:42:52;5.30;99.90
60309;DHT22;50313;52.894;6.492;2023-02-12T03:48:01;5.30;99.90
60309;DHT22;50313;52.894;6.492;2023-02-12T03:53:45;5.30;99.90
60309;DHT22;50313;52.894;6.492;2023-02-12T03:56:16;5.30;99.90
60309;DHT22;50313;52.894;6.492;2023-02-12T03:58:44;5.30;99.90
60309;DHT22;50313;52.894;6.492;2023-02-12T04:01:11;5.40;99.90
60309;DHT22;50313;52.894;6.492;2023-02-12T04:03:37;5.30;99.90
60309;DHT22;50313;52.894;6.492;2023-02-12T04:06:03;5.40;99.90
60309;DHT22;50313;52.894;6.492;2023-02-12T04:08:30;5.30;99.90
60309;DHT22;50313;52.894;6.492;2023-02-12T04:19:21;5.40;99.90
60309;DHT22;50313;52.894;6.492;2023-02-12T04:23:00;5.40;99.90
60309;DHT22;50313;52.894;6.492;2023-02-12T04:25:37;5.40;99.90
60309;DHT22;50313;52.894;6.492;2023-02-12T04:28:12;5.40;99.90
60309;DHT22;50313;52.894;6.492;2023-02-12T04:34:13;5.40;99.90
60309;DHT22;50313;52.894;6.492;2023-02-12T04:36:53;5.30;99.90
60309;DHT22;50313;52.894;6.492;2023-02-12T04:39:23;5.30;99.90
60309;DHT22;50313;52.894;6.492;2023-02-12T04:41:50;5.30;99.90
60309;DHT22;50313;52.894;6.492;2023-02-12T04:44:25;5.10;99.90
60309;DHT22;50313;52.894;6.492;2023-02-12T04:46:51;5.10;99.90
60309;DHT22;50313;52.894;6.492;2023-02-12T04:49:19;5.20;99.90
60309;DHT22;50313;52.894;6.492;2023-02-12T04:51:45;5.00;99.90
60309;DHT22;50313;52.894;6.492;2023-02-12T04:54:12;5.00;99.90
60309;DHT22;50313;52.894;6.492;2023-02-12T04:56:37;4.90;99.90
60309;DHT22;50313;52.894;6.492;2023-02-12T04:59:03;4.90;99.90
60309;DHT22;50313;52.894;6.492;2023-02-12T05:01:30;4.90;99.90
60309;DHT22;50313;52.894;6.492;2023-02-12T05:03:57;4.90;99.90
60309;DHT22;50313;52.894;6.492;2023-02-12T05:06:23;5.00;99.90
60309;DHT22;50313;52.894;6.492;2023-02-12T05:08:55;4.90;99.90
60309;DHT22;50313;52.894;6.492;2023-02-12T05:11:22;4.90;99.90
60309;DHT22;50313;52.894;6.492;2023-02-12T05:13:52;4.90;99.90
60309;DHT22;50313;52.894;6.492;2023-02-12T05:16:19;4.90;99.90
60309;DHT22;50313;52.894;6.492;2023-02-12T05:18:45;4.80;99.90
60309;DHT22;50313;52.894;6.492;2023-02-12T05:21:11;5.00;99.90
60309;DHT22;50313;52.894;6.492;2023-02-12T05:23:38;4.90;99.90
60309;DHT22;50313;52.894;6.492;2023-02-12T05:26:07;4.90;99.90
60309;DHT22;50313;52.894;6.492;2023-02-12T05:28:33;4.80;99.90
60309;DHT22;50313;52.894;6.492;2023-02-12T05:31:03;4.80;99.90
60309;DHT22;50313;52.894;6.492;2023-02-12T05:33:30;4.80;99.90
60309;DHT22;50313;52.894;6.492;2023-02-12T05:36:04;4.80;99.90
60309;DHT22;50313;52.894;6.492;2023-02-12T05:38:30;4.90;99.90
60309;DHT22;50313;52.894;6.492;2023-02-12T05:41:09;4.80;99.90
60309;DHT22;50313;52.894;6.492;2023-02-12T05:43:35;4.80;99.90
60309;DHT22;50313;52.894;6.492;2023-02-12T05:46:03;4.80;99.90
60309;DHT22;50313;52.894;6.492;2023-02-12T05:48:29;4.90;99.90
60309;DHT22;50313;52.894;6.492;2023-02-12T05:51:05;4.90;99.90
60309;DHT22;50313;52.894;6.492;2023-02-12T05:53:31;4.80;99.90
60309;DHT22;50313;52.894;6.492;2023-02-12T05:56:16;4.80;99.90
60309;DHT22;50313;52.894;6.492;2023-02-12T05:58:45;4.80;99.90
60309;DHT22;50313;52.894;6.492;2023-02-12T06:03:38;4.80;99.90
60309;DHT22;50313;52.894;6.492;2023-02-12T06:06:04;4.80;99.90
60309;DHT22;50313;52.894;6.492;2023-02-12T06:08:30;4.90;99.90
60309;DHT22;50313;52.894;6.492;2023-02-12T06:10:59;4.90;99.90
60309;DHT22;50313;52.894;6.492;2023-02-12T06:13:26;4.80;99.90
60309;DHT22;50313;52.894;6.492;2023-02-12T06:15:51;4.90;99.90
60309;DHT22;50313;52.894;6.492;2023-02-12T06:18:17;4.80;99.90
60309;DHT22;50313;52.894;6.492;2023-02-12T06:20:43;4.80;99.90
60309;DHT22;50313;52.894;6.492;2023-02-12T06:23:08;4.80;99.90
60309;DHT22;50313;52.894;6.492;2023-02-12T06:25:34;4.80;99.90
60309;DHT22;50313;52.894;6.492;2023-02-12T06:28:00;4.80;99.90
60309;DHT22;50313;52.894;6.492;2023-02-12T06:30:25;4.90;99.90
60309;DHT22;50313;52.894;6.492;2023-02-12T06:32:51;4.90;99.90
60309;DHT22;50313;52.894;6.492;2023-02-12T06:35:17;4.90;99.90
60309;DHT22;50313;52.894;6.492;2023-02-12T06:37:43;4.80;99.90
60309;DHT22;50313;52.894;6.492;2023-02-12T06:40:09;4.90;99.90
60309;DHT22;50313;52.894;6.492;2023-02-12T06:42:34;4.80;99.90
60309;DHT22;50313;52.894;6.492;2023-02-12T06:45:00;4.90;99.90
60309;DHT22;50313;52.894;6.492;2023-02-12T06:47:26;4.80;99.90
60309;DHT22;50313;52.894;6.492;2023-02-12T06:49:52;4.90;99.90
60309;DHT22;50313;52.894;6.492;2023-02-12T06:52:17;4.90;99.90
60309;DHT22;50313;52.894;6.492;2023-02-12T06:54:43;4.90;99.90
60309;DHT22;50313;52.894;6.492;2023-02-12T06:57:09;4.90;99.90
60309;DHT22;50313;52.894;6.492;2023-02-12T06:59:35;4.90;99.90
60309;DHT22;50313;52.894;6.492;2023-02-12T07:02:00;4.90;99.90
60309;DHT22;50313;52.894;6.492;2023-02-12T07:04:26;5.00;99.90
60309;DHT22;50313;52.894;6.492;2023-02-12T07:06:52;5.00;99.90
60309;DHT22;50313;52.894;6.492;2023-02-12T07:09:17;5.00;99.90
60309;DHT22;50313;52.894;6.492;2023-02-12T07:11:43;4.90;99.90
60309;DHT22;50313;52.894;6.492;2023-02-12T07:14:15;5.00;99.90
60309;DHT22;50313;52.894;6.492;2023-02-12T07:16:41;4.90;99.90
60309;DHT22;50313;52.894;6.492;2023-02-12T07:19:10;5.00;99.90
60309;DHT22;50313;52.894;6.492;2023-02-12T07:21:36;5.00;99.90
60309;DHT22;50313;52.894;6.492;2023-02-12T07:24:02;5.00;99.90
60309;DHT22;50313;52.894;6.492;2023-02-12T07:26:28;5.00;99.90
60309;DHT22;50313;52.894;6.492;2023-02-12T07:28:53;5.00;99.90
60309;DHT22;50313;52.894;6.492;2023-02-12T07:31:22;5.00;99.90
60309;DHT22;50313;52.894;6.492;2023-02-12T07:33:52;5.00;99.90
60309;DHT22;50313;52.894;6.492;2023-02-12T07:36:18;5.00;99.90
60309;DHT22;50313;52.894;6.492;2023-02-12T07:38:45;5.10;99.90
60309;DHT22;50313;52.894;6.492;2023-02-12T07:41:13;5.10;99.90
60309;DHT22;50313;52.894;6.492;2023-02-12T07:43:41;5.10;99.90
60309;DHT22;50313;52.894;6.492;2023-02-12T07:46:18;5.10;99.90
60309;DHT22;50313;52.894;6.492;2023-02-12T07:48:45;5.10;99.90
60309;DHT22;50313;52.894;6.492;2023-02-12T07:51:15;5.20;99.90
60309;DHT22;50313;52.894;6.492;2023-02-12T07:53:43;5.20;99.90
60309;DHT22;50313;52.894;6.492;2023-02-12T07:56:15;5.30;99.90
60309;DHT22;50313;52.894;6.492;2023-02-12T07:58:42;5.30;99.90
60309;DHT22;50313;52.894;6.492;2023-02-12T08:01:18;5.30;99.90
60309;DHT22;50313;52.894;6.492;2023-02-12T08:03:45;5.30;99.90
60309;DHT22;50313;52.894;6.492;2023-02-12T08:06:23;5.30;99.90
60309;DHT22;50313;52.894;6.492;2023-02-12T08:08:53;5.30;99.90
60309;DHT22;50313;52.894;6.492;2023-02-12T08:11:20;5.40;99.90
60309;DHT22;50313;52.894;6.492;2023-02-12T08:13:46;5.40;99.90
60309;DHT22;50313;52.894;6.492;2023-02-12T08:16:15;5.40;99.90
60309;DHT22;50313;52.894;6.492;2023-02-12T08:18:41;5.50;99.90
60309;DHT22;50313;52.894;6.492;2023-02-12T08:21:10;5.60;99.90
60309;DHT22;50313;52.894;6.492;2023-02-12T08:23:36;5.60;99.90
60309;DHT22;50313;52.894;6.492;2023-02-12T08:26:15;5.60;99.90
60309;DHT22;50313;52.894;6.492;2023-02-12T08:28:44;5.60;99.90
60309;DHT22;50313;52.894;6.492;2023-02-12T08:31:12;5.70;99.90
60309;DHT22;50313;52.894;6.492;2023-02-12T08:33:39;5.70;99.90
60309;DHT22;50313;52.894;6.492;2023-02-12T08:36:12;5.80;99.90
60309;DHT22;50313;52.894;6.492;2023-02-12T08:38:41;5.80;99.90
60309;DHT22;50313;52.894;6.492;2023-02-12T08:41:09;5.80;99.90
60309;DHT22;50313;52.894;6.492;2023-02-12T08:43:38;5.90;99.90
60309;DHT22;50313;52.894;6.492;2023-02-12T08:46:06;6.00;99.90
60309;DHT22;50313;52.894;6.492;2023-02-12T08:48:32;5.90;99.90
60309;DHT22;50313;52.894;6.492;2023-02-12T08:51:16;5.90;99.90
60309;DHT22;50313;52.894;6.492;2023-02-12T08:53:43;6.10;99.90
60309;DHT22;50313;52.894;6.492;2023-02-12T08:56:13;6.10;99.90
60309;DHT22;50313;52.894;6.492;2023-02-12T08:58:40;6.10;99.90
60309;DHT22;50313;52.894;6.492;2023-02-12T09:01:21;6.20;99.90
60309;DHT22;50313;52.894;6.492;2023-02-12T09:03:48;6.20;99.90
60309;DHT22;50313;52.894;6.492;2023-02-12T09:06:15;6.30;99.90
60309;DHT22;50313;52.894;6.492;2023-02-12T09:08:41;6.40;99.90
60309;DHT22;50313;52.894;6.492;2023-02-12T09:11:10;6.40;99.90
60309;DHT22;50313;52.894;6.492;2023-02-12T09:13:38;6.30;99.90
60309;DHT22;50313;52.894;6.492;2023-02-12T09:16:05;6.40;99.90
60309;DHT22;50313;52.894;6.492;2023-02-12T09:18:32;6.50;99.90
60309;DHT22;50313;52.894;6.492;2023-02-12T09:21:12;6.50;99.90
60309;DHT22;50313;52.894;6.492;2023-02-12T09:23:39;6.60;99.90
60309;DHT22;50313;52.894;6.492;2023-02-12T09:26:10;6.60;99.90
60309;DHT22;50313;52.894;6.492;2023-02-12T09:28:37;6.60;99.90
60309;DHT22;50313;52.894;6.492;2023-02-12T09:31:06;6.70;99.90
60309;DHT22;50313;52.894;6.492;2023-02-12T09:33:33;6.80;99.90
60309;DHT22;50313;52.894;6.492;2023-02-12T09:36:03;6.80;99.90
60309;DHT22;50313;52.894;6.492;2023-02-12T09:38:30;6.80;99.90
60309;DHT22;50313;52.894;6.492;2023-02-12T09:49:17;6.90;99.90
60309;DHT22;50313;52.894;6.492;2023-02-12T09:51:48;7.00;99.90
60309;DHT22;50313;52.894;6.492;2023-02-12T09:54:18;7.10;99.90
60309;DHT22;50313;52.894;6.492;2023-02-12T09:57:11;7.20;99.90
60309;DHT22;50313;52.894;6.492;2023-02-12T10:02:33;7.30;99.90
60309;DHT22;50313;52.894;6.492;2023-02-12T10:04:59;7.30;99.90
60309;DHT22;50313;52.894;6.492;2023-02-12T10:13:06;7.80;99.90
60309;DHT22;50313;52.894;6.492;2023-02-12T10:15:34;7.90;99.90
60309;DHT22;50313;52.894;6.492;2023-02-12T10:18:29;7.90;99.90
60309;DHT22;50313;52.894;6.492;2023-02-12T10:21:43;8.00;99.90
60309;DHT22;50313;52.894;6.492;2023-02-12T10:26:47;8.10;99.90
60309;DHT22;50313;52.894;6.492;2023-02-12T10:29:18;8.20;99.90
60309;DHT22;50313;52.894;6.492;2023-02-12T10:31:48;8.30;99.90
60309;DHT22;50313;52.894;6.492;2023-02-12T10:34:24;8.30;99.90
60309;DHT22;50313;52.894;6.492;2023-02-12T10:36:51;8.40;99.90
60309;DHT22;50313;52.894;6.492;2023-02-12T10:39:23;8.50;99.90
60309;DHT22;50313;52.894;6.492;2023-02-12T10:42:00;8.70;99.90
60309;DHT22;50313;52.894;6.492;2023-02-12T10:44:27;8.90;99.90
60309;DHT22;50313;52.894;6.492;2023-02-12T10:46:53;9.00;99.90
60309;DHT22;50313;52.894;6.492;2023-02-12T10:49:20;9.00;99.90
60309;DHT22;50313;52.894;6.492;2023-02-12T10:52:09;9.00;99.90
60309;DHT22;50313;52.894;6.492;2023-02-12T10:54:40;9.10;99.90
60309;DHT22;50313;52.894;6.492;2023-02-12T10:57:22;9.30;99.90
60309;DHT22;50313;52.894;6.492;2023-02-12T10:59:51;9.30;99.90
60309;DHT22;50313;52.894;6.492;2023-02-12T11:02:20;9.40;99.90
60309;DHT22;50313;52.894;6.492;2023-02-12T11:04:47;9.40;99.90
60309;DHT22;50313;52.894;6.492;2023-02-12T11:07:13;9.50;99.90
60309;DHT22;50313;52.894;6.492;2023-02-12T11:09:43;9.50;99.90
60309;DHT22;50313;52.894;6.492;2023-02-12T11:12:35;9.50;99.90
60309;DHT22;50313;52.894;6.492;2023-02-12T11:15:15;9.60;99.90
60309;DHT22;50313;52.894;6.492;2023-02-12T11:17:44;9.70;99.90
60309;DHT22;50313;52.894;6.492;2023-02-12T11:22:54;9.80;99.90
60309;DHT22;50313;52.894;6.492;2023-02-12T11:25:21;9.80;99.90
60309;DHT22;50313;52.894;6.492;2023-02-12T11:30:48;9.70;99.90
60309;DHT22;50313;52.894;6.492;2023-02-12T11:33:18;9.70;99.90
60309;DHT22;50313;52.894;6.492;2023-02-12T11:36:18;9.70;99.90
60309;DHT22;50313;52.894;6.492;2023-02-12T11:38:52;9.70;99.90
60309;DHT22;50313;52.894;6.492;2023-02-12T11:41:38;9.70;99.90
60309;DHT22;50313;52.894;6.492;2023-02-12T11:44:20;9.70;99.90
60309;DHT22;50313;52.894;6.492;2023-02-12T11:46:49;9.70;99.90
60309;DHT22;50313;52.894;6.492;2023-02-12T11:49:20;9.70;99.90
60309;DHT22;50313;52.894;6.492;2023-02-12T11:51:48;9.80;99.90
60309;DHT22;50313;52.894;6.492;2023-02-12T11:54:20;9.70;99.90
60309;DHT22;50313;52.894;6.492;2023-02-12T11:56:47;9.80;99.90
60309;DHT22;50313;52.894;6.492;2023-02-12T11:59:35;9.80;99.90
60309;DHT22;50313;52.894;6.492;2023-02-12T12:02:13;9.80;99.90
60309;DHT22;50313;52.894;6.492;2023-02-12T12:05:11;9.70;99.90
60309;DHT22;50313;52.894;6.492;2023-02-12T12:07:40;9.80;99.90
60309;DHT22;50313;52.894;6.492;2023-02-12T12:10:15;9.80;99.90
60309;DHT22;50313;52.894;6.492;2023-02-12T12:12:49;9.80;99.90
60309;DHT22;50313;52.894;6.492;2023-02-12T12:15:30;9.80;99.90
60309;DHT22;50313;52.894;6.492;2023-02-12T12:18:28;9.90;99.90
60309;DHT22;50313;52.894;6.492;2023-02-12T12:24:03;9.70;99.90
60309;DHT22;50313;52.894;6.492;2023-02-12T12:26:34;9.80;99.90
60309;DHT22;50313;52.894;6.492;2023-02-12T12:31:43;9.90;99.90
60309;DHT22;50313;52.894;6.492;2023-02-12T12:39:27;9.80;99.90
60309;DHT22;50313;52.894;6.492;2023-02-12T12:47:06;9.80;99.90
60309;DHT22;50313;52.894;6.492;2023-02-12T12:58:22;9.70;99.90
60309;DHT22;50313;52.894;6.492;2023-02-12T13:06:33;9.70;99.90
60309;DHT22;50313;52.894;6.492;2023-02-12T13:12:15;9.70;99.90
60309;DHT22;50313;52.894;6.492;2023-02-12T13:17:41;9.70;99.90
60309;DHT22;50313;52.894;6.492;2023-02-12T13:22:58;9.80;99.90
60309;DHT22;50313;52.894;6.492;2023-02-12T13:28:43;9.80;99.90
60309;DHT22;50313;52.894;6.492;2023-02-12T13:31:15;9.70;99.90
60309;DHT22;50313;52.894;6.492;2023-02-12T13:33:47;9.70;99.90
60309;DHT22;50313;52.894;6.492;2023-02-12T13:36:14;9.70;99.90
60309;DHT22;50313;52.894;6.492;2023-02-12T13:39:28;9.70;99.90
60309;DHT22;50313;52.894;6.492;2023-02-12T13:41:34;9.70;99.90
60309;DHT22;50313;52.894;6.492;2023-02-12T13:49:53;9.60;99.90
60309;DHT22;50313;52.894;6.492;2023-02-12T13:52:35;9.50;99.90
60309;DHT22;50313;52.894;6.492;2023-02-12T13:57:39;9.40;99.90
60309;DHT22;50313;52.894;6.492;2023-02-12T14:00:10;9.30;99.90
60309;DHT22;50313;52.894;6.492;2023-02-12T14:02:52;9.30;99.90
60309;DHT22;50313;52.894;6.492;2023-02-12T14:05:27;9.30;99.90
60309;DHT22;50313;52.894;6.492;2023-02-12T14:07:59;9.30;99.90
60309;DHT22;50313;52.894;6.492;2023-02-12T14:13:14;9.30;99.90
60309;DHT22;50313;52.894;6.492;2023-02-12T14:18:44;9.40;99.90
60309;DHT22;50313;52.894;6.492;2023-02-12T14:23:45;9.40;99.90
60309;DHT22;50313;52.894;6.492;2023-02-12T14:26:16;9.40;99.90
60309;DHT22;50313;52.894;6.492;2023-02-12T14:28:50;9.40;99.90
60309;DHT22;50313;52.894;6.492;2023-02-12T14:31:28;9.30;99.90
60309;DHT22;50313;52.894;6.492;2023-02-12T14:41:45;9.20;99.90
60309;DHT22;50313;52.894;6.492;2023-02-12T14:46:51;9.10;99.90
60309;DHT22;50313;52.894;6.492;2023-02-12T14:49:26;9.00;99.90
60309;DHT22;50313;52.894;6.492;2023-02-12T14:55:38;9.00;99.90
60309;DHT22;50313;52.894;6.492;2023-02-12T14:57:45;8.90;99.90
60309;DHT22;50313;52.894;6.492;2023-02-12T15:00:22;8.90;99.90
60309;DHT22;50313;52.894;6.492;2023-02-12T15:05:29;8.80;99.90
60309;DHT22;50313;52.894;6.492;2023-02-12T15:08:13;8.80;99.90
60309;DHT22;50313;52.894;6.492;2023-02-12T15:10:49;8.80;99.90
60309;DHT22;50313;52.894;6.492;2023-02-12T15:13:39;8.70;99.90
60309;DHT22;50313;52.894;6.492;2023-02-12T15:16:28;8.70;99.90
60309;DHT22;50313;52.894;6.492;2023-02-12T15:21:39;8.70;99.90
60309;DHT22;50313;52.894;6.492;2023-02-12T15:24:08;8.70;99.90
60309;DHT22;50313;52.894;6.492;2023-02-12T15:26:39;8.60;99.90
60309;DHT22;50313;52.894;6.492;2023-02-12T15:29:13;8.60;99.90
60309;DHT22;50313;52.894;6.492;2023-02-12T15:31:40;8.60;99.90
60309;DHT22;50313;52.894;6.492;2023-02-12T15:34:06;8.50;99.90
60309;DHT22;50313;52.894;6.492;2023-02-12T15:36:39;8.60;99.90
60309;DHT22;50313;52.894;6.492;2023-02-12T15:39:17;8.50;99.90
60309;DHT22;50313;52.894;6.492;2023-02-12T15:41:45;8.50;99.90
60309;DHT22;50313;52.894;6.492;2023-02-12T15:44:28;8.50;99.90
60309;DHT22;50313;52.894;6.492;2023-02-12T15:47:10;8.50;99.90
60309;DHT22;50313;52.894;6.492;2023-02-12T15:49:37;8.50;99.90
60309;DHT22;50313;52.894;6.492;2023-02-12T15:52:14;8.50;99.90
60309;DHT22;50313;52.894;6.492;2023-02-12T15:54:43;8.40;99.90
60309;DHT22;50313;52.894;6.492;2023-02-12T15:57:12;8.40;99.90
60309;DHT22;50313;52.894;6.492;2023-02-12T15:59:39;8.40;99.90
60309;DHT22;50313;52.894;6.492;2023-02-12T16:02:21;8.40;99.90
60309;DHT22;50313;52.894;6.492;2023-02-12T16:04:49;8.40;99.90
60309;DHT22;50313;52.894;6.492;2023-02-12T16:07:16;8.30;99.90
60309;DHT22;50313;52.894;6.492;2023-02-12T16:09:43;8.30;99.90
60309;DHT22;50313;52.894;6.492;2023-02-12T16:12:13;8.30;99.90
60309;DHT22;50313;52.894;6.492;2023-02-12T16:14:46;8.30;99.90
60309;DHT22;50313;52.894;6.492;2023-02-12T16:20:22;8.30;99.90
60309;DHT22;50313;52.894;6.492;2023-02-12T16:22:48;8.20;99.90
60309;DHT22;50313;52.894;6.492;2023-02-12T16:25:21;8.20;99.90
60309;DHT22;50313;52.894;6.492;2023-02-12T16:32:55;8.10;99.90
60309;DHT22;50313;52.894;6.492;2023-02-12T16:35:41;8.10;99.90
60309;DHT22;50313;52.894;6.492;2023-02-12T16:44:26;8.00;99.90
60309;DHT22;50313;52.894;6.492;2023-02-12T16:46:56;8.00;99.90
60309;DHT22;50313;52.894;6.492;2023-02-12T16:49:24;7.90;99.90
60309;DHT22;50313;52.894;6.492;2023-02-12T16:51:51;8.00;99.90
60309;DHT22;50313;52.894;6.492;2023-02-12T16:54:26;7.90;99.90
60309;DHT22;50313;52.894;6.492;2023-02-12T16:56:52;7.90;99.90
60309;DHT22;50313;52.894;6.492;2023-02-12T16:59:17;7.90;99.90
60309;DHT22;50313;52.894;6.492;2023-02-12T17:01:59;7.90;99.90
60309;DHT22;50313;52.894;6.492;2023-02-12T17:04:25;7.80;99.90
60309;DHT22;50313;52.894;6.492;2023-02-12T17:06:51;7.80;99.90
60309;DHT22;50313;52.894;6.492;2023-02-12T17:09:17;7.80;99.90
60309;DHT22;50313;52.894;6.492;2023-02-12T17:11:42;7.80;99.90
60309;DHT22;50313;52.894;6.492;2023-02-12T17:14:14;7.80;99.90
60309;DHT22;50313;52.894;6.492;2023-02-12T17:16:40;7.70;99.90
60309;DHT22;50313;52.894;6.492;2023-02-12T17:19:06;7.70;99.90
60309;DHT22;50313;52.894;6.492;2023-02-12T17:21:38;7.70;99.90
60309;DHT22;50313;52.894;6.492;2023-02-12T17:24:17;7.70;99.90
60309;DHT22;50313;52.894;6.492;2023-02-12T17:26:43;7.70;99.90
60309;DHT22;50313;52.894;6.492;2023-02-12T17:29:09;7.60;99.90
60309;DHT22;50313;52.894;6.492;2023-02-12T17:31:35;7.70;99.90
60309;DHT22;50313;52.894;6.492;2023-02-12T17:34:03;7.60;99.90
60309;DHT22;50313;52.894;6.492;2023-02-12T17:36:29;7.70;99.90
60309;DHT22;50313;52.894;6.492;2023-02-12T17:38:54;7.70;99.90
60309;DHT22;50313;52.894;6.492;2023-02-12T17:41:20;7.60;99.90
60309;DHT22;50313;52.894;6.492;2023-02-12T17:43:46;7.60;99.90
60309;DHT22;50313;52.894;6.492;2023-02-12T17:46:21;7.60;99.90
60309;DHT22;50313;52.894;6.492;2023-02-12T17:48:48;7.60;99.90
60309;DHT22;50313;52.894;6.492;2023-02-12T17:51:13;7.60;99.90
60309;DHT22;50313;52.894;6.492;2023-02-12T17:53:40;7.60;99.90
60309;DHT22;50313;52.894;6.492;2023-02-12T17:56:13;7.50;99.90
60309;DHT22;50313;52.894;6.492;2023-02-12T17:58:40;7.50;99.90
60309;DHT22;50313;52.894;6.492;2023-02-12T18:01:07;7.50;99.90
60309;DHT22;50313;52.894;6.492;2023-02-12T18:03:33;7.50;99.90
60309;DHT22;50313;52.894;6.492;2023-02-12T18:06:00;7.50;99.90
60309;DHT22;50313;52.894;6.492;2023-02-12T18:08:26;7.50;99.90
60309;DHT22;50313;52.894;6.492;2023-02-12T18:10:52;7.50;99.90
60309;DHT22;50313;52.894;6.492;2023-02-12T18:13:17;7.40;99.90
60309;DHT22;50313;52.894;6.492;2023-02-12T18:15:43;7.40;99.90
60309;DHT22;50313;52.894;6.492;2023-02-12T18:18:09;7.40;99.90
60309;DHT22;50313;52.894;6.492;2023-02-12T18:20:35;7.40;99.90
60309;DHT22;50313;52.894;6.492;2023-02-12T18:23:01;7.40;99.90
60309;DHT22;50313;52.894;6.492;2023-02-12T18:25:28;7.40;99.90
60309;DHT22;50313;52.894;6.492;2023-02-12T18:27:53;7.40;99.90
60309;DHT22;50313;52.894;6.492;2023-02-12T18:30:19;7.40;99.90
60309;DHT22;50313;52.894;6.492;2023-02-12T18:32:45;7.40;99.90
60309;DHT22;50313;52.894;6.492;2023-02-12T18:35:10;7.30;99.90
60309;DHT22;50313;52.894;6.492;2023-02-12T18:37:36;7.30;99.90
60309;DHT22;50313;52.894;6.492;2023-02-12T18:40:02;7.30;99.90
60309;DHT22;50313;52.894;6.492;2023-02-12T18:42:29;7.30;99.90
60309;DHT22;50313;52.894;6.492;2023-02-12T18:44:57;7.30;99.90
60309;DHT22;50313;52.894;6.492;2023-02-12T18:47:23;7.30;99.90
60309;DHT22;50313;52.894;6.492;2023-02-12T18:49:49;7.20;99.90
60309;DHT22;50313;52.894;6.492;2023-02-12T18:52:14;7.30;99.90